This is the latest recevied weather packets stored in our database for station/object DB0SWS-6. If no packets are shown the sender has not sent any weather packets the latest 10 day(s).
| Time | Temp. | Humidity | Pressure | Rain* | Wind** | Luminosity | Snow |
|---|---|---|---|---|---|---|---|
| 1777860210 | 10.56° C | 78% | 961 hPa | 0 mm | - | - | - |
| 1777858409 | 10.56° C | 78% | 960.8 hPa | 0 mm | - | - | - |
| 1777856610 | 10.56° C | 77% | 960.9 hPa | 0 mm | - | - | - |
| 1777854811 | 11.11° C | 73% | 960.9 hPa | 0 mm | - | - | - |
| 1777853011 | 12.22° C | 72% | 960.9 hPa | 0 mm | - | - | - |
| 1777851210 | 12.78° C | 70% | 960.7 hPa | 0 mm | - | - | - |
| 1777849413 | 13.33° C | 67% | 960.9 hPa | 0 mm | - | - | - |
| 1777847611 | 13.89° C | 66% | 960.9 hPa | 0 mm | - | - | - |
| 1777845810 | 13.89° C | 67% | 961 hPa | 0 mm | - | - | - |
| 1777844010 | 13.89° C | 65% | 961.1 hPa | 0 mm | - | - | - |
| 1777842210 | 13.89° C | 65% | 960.9 hPa | 0 mm | - | - | - |
| 1777840410 | 13.89° C | 63% | 961 hPa | 0 mm | - | - | - |
| 1777838612 | 14.44° C | 60% | 961 hPa | 0 mm | - | - | - |
| 1777836812 | 15° C | 56% | 961 hPa | 0 mm | - | - | - |
| 1777835011 | 16.11° C | 53% | 961 hPa | 0 mm | - | - | - |
| 1777833210 | 16.67° C | 49% | 960.9 hPa | 0 mm | - | - | - |
| 1777831410 | 17.22° C | 48% | 960.8 hPa | 0 mm | - | - | - |
| 1777829610 | 17.78° C | 46% | 961 hPa | 0 mm | - | - | - |
| 1777827809 | 18.33° C | 44% | 960.9 hPa | 0 mm | - | - | - |
| 1777826011 | 18.33° C | 44% | 960.9 hPa | 0 mm | - | - | - |
| 1777824210 | 19.44° C | 41% | 960.7 hPa | 0 mm | - | - | - |
| 1777822411 | 20° C | 37% | 960.3 hPa | 0 mm | - | - | - |
| 1777820610 | 22.78° C | 40% | 959.6 hPa | 0 mm | - | - | - |
| 1777818810 | 22.78° C | 39% | 959.6 hPa | 0 mm | - | - | - |
| 1777817009 | 22.78° C | 17% | 960 hPa | 0 mm | - | - | - |
* Rain latest hour (hover to see other rain measurements)
** Current wind speed in m/s (hover to see current wind gust speed)